Thursday, September 20, 2018, 9:02 AM EDT
Back to Local

KHIE, Mt Washington Regional Airport

Location: Jefferson, NH, United States Lat: 44.367
Local Time: 9:02 AM EDT (13:02 GMT) Lon: -71.55
Time Zone: US/Eastern Elev: 1072 ft

Show me the last for .
Show Decoded

2018-09-20 07:52 METAR KHIE 201152Z AUTO 00000KT 10SM OVC046 13/11 A3024 RMK AO2 SLP243 T01280111
                 10128 20100 53023 =
2018-09-20 06:52 METAR KHIE 201052Z AUTO 00000KT 10SM OVC045 11/11 A3020 RMK AO2 SLP230 T01110106
                 =
2018-09-20 05:52 METAR KHIE 200952Z AUTO 16003KT 10SM FEW017 OVC040 11/10 A3017 RMK AO2 SLP220
                 T01110100 =
2018-09-20 05:20 METAR KHIE 200920Z AUTO 00000KT 10SM SCT026 BKN033 OVC044 11/10 A3017 RMK AO2
                 T01060100 =
2018-09-20 05:12 METAR KHIE 200912Z AUTO 00000KT 10SM BKN026 OVC044 11/10 A3017 RMK AO2 T01110100
                 =
2018-09-20 04:52 METAR KHIE 200852Z AUTO 00000KT 10SM OVC043 11/11 A3017 RMK AO2 SLP218 T01110106
                 53002 =
2018-09-20 04:12 METAR KHIE 200812Z AUTO 00000KT 10SM SCT012 BKN030 OVC045 10/09 A3016 RMK AO2
                 T01000094 =
2018-09-20 03:58 METAR KHIE 200758Z AUTO 00000KT 10SM BKN012 BKN026 BKN045 11/10 A3016 RMK AO2
                 T01060100 =
2018-09-20 03:52 METAR KHIE 200752Z AUTO 00000KT 10SM SCT010 SCT026 BKN045 10/09 A3016 RMK AO2
                 SLP215 T01000094 =
2018-09-20 03:48 METAR KHIE 200748Z AUTO 00000KT 10SM FEW010 SCT026 BKN046 10/09 A3015 RMK AO2 =
2018-09-20 03:39 METAR KHIE 200739Z AUTO 06003KT 10SM SCT010 BKN026 BKN046 10/09 A3016 RMK AO2
                 T01000094 =
2018-09-20 03:06 METAR KHIE 200706Z AUTO 35003KT 10SM FEW009 SCT035 BKN050 11/10 A3017 RMK AO2
                 T01110100 =
2018-09-20 02:52 METAR KHIE 200652Z AUTO 00000KT 10SM OVC050 11/11 A3016 RMK AO2 SLP216 T01110106
                 =
2018-09-20 01:52 METAR KHIE 200552Z AUTO 00000KT 10SM FEW005 BKN031 OVC047 11/11 A3016 RMK AO2
                 SLP214 T01110106 10144 20106 53007 =
2018-09-20 00:52 METAR KHIE 200452Z AUTO 00000KT 9SM SCT032 BKN046 11/11 A3014 RMK AO2 SLP210
                 T01110106 401890111 =
2018-09-20 00:41 METAR KHIE 200441Z AUTO 00000KT 10SM OVC032 12/11 A3014 RMK AO2 T01170106 =
2018-09-20 00:15 METAR KHIE 200415Z AUTO 00000KT 10SM BKN029 OVC049 12/11 A3014 RMK AO2 T01220111
                 =
2018-09-19 23:52 METAR KHIE 200352Z AUTO 00000KT 10SM BKN049 13/11 A3014 RMK AO2 SLP208 T01280111
                 =
2018-09-19 23:31 METAR KHIE 200331Z AUTO 00000KT 10SM BKN030 OVC049 13/11 A3014 RMK AO2 T01280111
                 =
2018-09-19 22:52 METAR KHIE 200252Z AUTO 00000KT 10SM BKN025 OVC049 13/12 A3014 RMK AO2 SLP205
                 T01280117 53006 =
2018-09-19 21:52 METAR KHIE 200152Z AUTO 00000KT 10SM FEW016 BKN027 OVC049 12/11 A3012 RMK AO2
                 SLP202 T01220111 =
2018-09-19 21:49 METAR KHIE 200149Z AUTO 00000KT 10SM SCT016 BKN027 OVC049 12/11 A3012 RMK AO2 =
2018-09-19 21:06 METAR KHIE 200106Z AUTO 00000KT 10SM SCT019 BKN034 OVC047 13/12 A3012 RMK AO2
                 T01330117 =
2018-09-19 20:52 METAR KHIE 200052Z AUTO 00000KT 10SM BKN019 OVC034 14/12 A3012 RMK AO2 SLP199
                 T01390122 =
2018-09-19 20:35 METAR KHIE 200035Z AUTO 00000KT 10SM BKN020 BKN036 OVC048 14/12 A3012 RMK AO2
                 T01390122 =
2018-09-19 19:52 METAR KHIE 192352Z AUTO 00000KT 10SM OVC048 14/11 A3010 RMK AO2 SLP194 T01440111
                 10183 20144 53019 =
2018-09-19 18:52 METAR KHIE 192252Z AUTO 31003KT 10SM SCT030 BKN046 15/11 A3008 RMK AO2 SLP187
                 T01500111 =
2018-09-19 18:31 METAR KHIE 192231Z AUTO 34003KT 10SM BKN030 OVC046 16/11 A3008 RMK AO2 T01560111
                 =
2018-09-19 18:21 METAR KHIE 192221Z AUTO 33003KT 10SM BKN029 OVC038 16/11 A3008 RMK AO2 T01560111
                 =
2018-09-19 17:52 METAR KHIE 192152Z AUTO 33004KT 10SM SCT027 OVC037 16/11 A3005 RMK AO2 SLP176
                 T01610111 =
2018-09-19 17:43 METAR KHIE 192143Z AUTO 36004KT 10SM BKN027 OVC040 17/12 A3005 RMK AO2 T01670117
                 =
2018-09-19 16:52 METAR KHIE 192052Z AUTO 34005KT 10SM OVC039 17/11 A3004 RMK AO2 SLP174 T01720111
                 53011 =
2018-09-19 15:52 METAR KHIE 191952Z AUTO 04004KT 10SM OVC035 18/11 A3001 RMK AO2 SLP161 T01780111
                 =
2018-09-19 14:52 METAR KHIE 191852Z AUTO 34007KT 10SM OVC032 17/12 A3001 RMK AO2 SLP161 T01720117
                 =
2018-09-19 13:52 METAR KHIE 191752Z AUTO 32006KT 10SM OVC034 18/11 A3001 RMK AO2 SLP161 T01830111
                 10189 20156 53006 =
2018-09-19 12:52 METAR KHIE 191652Z AUTO 31005KT 10SM OVC033 18/11 A3000 RMK AO2 SLP159 T01830111
                 =
2018-09-19 11:52 METAR KHIE 191552Z AUTO 30006KT 10SM OVC034 18/12 A3000 RMK AO2 SLP157 T01780117
                 =
2018-09-19 11:16 METAR KHIE 191516Z AUTO VRB04KT 10SM FEW022 OVC036 18/12 A2999 RMK AO2 T01780122
                 =
2018-09-19 10:52 METAR KHIE 191452Z AUTO 34005KT 10SM BKN025 OVC034 18/13 A2999 RMK AO2 SLP154
                 T01780128 51015 =
2018-09-19 09:52 METAR KHIE 191352Z AUTO 02006KT 10SM OVC023 18/12 A2998 RMK AO2 SLP149 T01780117
                 =
2018-09-19 09:28 METAR KHIE 191328Z AUTO 01006KT 10SM BKN021 OVC044 18/13 A2997 RMK AO2 T01830128
                 =

Support USWX by starting your Amazon purchase here.